Mc Grath, Alaska
Current Conditions -  °F | °C
As of 9:53 PM on Friday 24 Oct 2014 (Local Time) from PAMC Reporting Station
Overcast Overcast  
Wind Chill: 24°   Ceiling: 2700
Heat Index: 29°   Visibility: 10mi
Dew Point: 24°   Wind: 5mph
Humidity: 82%   Direction: 150°SSE
Pressure: 29.98"   Gusts: NA
Location:  63.1005°N, 155.153°W
Report Text: PAMC 250553Z AUTO 15004KT 10SM OVC027 M02/M04 A2998 RMK AO2 SLP161 T10171044 10011 21033 51003 TSNO
Loading
Personal Weather Stations






























Interactive Weather Map New forecast layout! Learn more

10-Day Weather Forecast

Advertisements
Track Severe Weather on mobile